sensor_id;sensor_type;location;lat;lon;timestamp;temperature;humidity
86008;SHT30;76587;41.936;25.550;2024-03-07T00:02:20;6.95;85.37
86008;SHT30;76587;41.936;25.550;2024-03-07T00:04:45;6.90;85.49
86008;SHT30;76587;41.936;25.550;2024-03-07T00:07:11;6.91;85.43
86008;SHT30;76587;41.936;25.550;2024-03-07T00:09:36;6.84;85.76
86008;SHT30;76587;41.936;25.550;2024-03-07T00:12:02;6.85;85.50
86008;SHT30;76587;41.936;25.550;2024-03-07T00:14:28;6.91;85.44
86008;SHT30;76587;41.936;25.550;2024-03-07T00:16:55;6.83;85.56
86008;SHT30;76587;41.936;25.550;2024-03-07T00:19:21;6.84;85.44
86008;SHT30;76587;41.936;25.550;2024-03-07T00:21:47;6.74;85.53
86008;SHT30;76587;41.936;25.550;2024-03-07T00:24:12;6.70;85.66
86008;SHT30;76587;41.936;25.550;2024-03-07T00:26:39;6.74;85.77
86008;SHT30;76587;41.936;25.550;2024-03-07T00:29:06;6.70;85.92
86008;SHT30;76587;41.936;25.550;2024-03-07T00:31:32;6.71;85.63
86008;SHT30;76587;41.936;25.550;2024-03-07T00:33:58;6.66;85.68
86008;SHT30;76587;41.936;25.550;2024-03-07T00:36:24;6.70;85.76
86008;SHT30;76587;41.936;25.550;2024-03-07T00:38:49;6.76;85.57
86008;SHT30;76587;41.936;25.550;2024-03-07T00:41:15;6.81;85.47
86008;SHT30;76587;41.936;25.550;2024-03-07T00:43:42;6.81;85.19
86008;SHT30;76587;41.936;25.550;2024-03-07T00:46:08;6.76;85.47
86008;SHT30;76587;41.936;25.550;2024-03-07T00:48:33;6.74;85.52
86008;SHT30;76587;41.936;25.550;2024-03-07T00:50:58;6.76;85.64
86008;SHT30;76587;41.936;25.550;2024-03-07T00:53:24;6.84;84.59
86008;SHT30;76587;41.936;25.550;2024-03-07T00:55:49;6.74;84.95
86008;SHT30;76587;41.936;25.550;2024-03-07T00:58:15;6.85;84.20
86008;SHT30;76587;41.936;25.550;2024-03-07T01:00:40;6.90;83.80
86008;SHT30;76587;41.936;25.550;2024-03-07T01:03:09;6.87;83.43
86008;SHT30;76587;41.936;25.550;2024-03-07T01:05:39;6.83;83.12
86008;SHT30;76587;41.936;25.550;2024-03-07T01:08:05;6.87;83.23
86008;SHT30;76587;41.936;25.550;2024-03-07T01:10:31;6.84;83.18
86008;SHT30;76587;41.936;25.550;2024-03-07T01:12:56;6.85;82.93
86008;SHT30;76587;41.936;25.550;2024-03-07T01:15:26;6.88;83.05
86008;SHT30;76587;41.936;25.550;2024-03-07T01:17:52;6.87;82.96
86008;SHT30;76587;41.936;25.550;2024-03-07T01:20:17;6.91;82.80
86008;SHT30;76587;41.936;25.550;2024-03-07T01:22:43;6.97;82.64
86008;SHT30;76587;41.936;25.550;2024-03-07T01:25:09;6.93;82.71
86008;SHT30;76587;41.936;25.550;2024-03-07T01:27:34;7.01;82.56
86008;SHT30;76587;41.936;25.550;2024-03-07T01:30:00;7.01;82.11
86008;SHT30;76587;41.936;25.550;2024-03-07T01:32:28;7.04;81.94
86008;SHT30;76587;41.936;25.550;2024-03-07T01:34:54;7.01;82.07
86008;SHT30;76587;41.936;25.550;2024-03-07T01:37:20;6.95;81.98
86008;SHT30;76587;41.936;25.550;2024-03-07T01:39:45;6.90;82.32
86008;SHT30;76587;41.936;25.550;2024-03-07T01:42:12;6.94;82.11
86008;SHT30;76587;41.936;25.550;2024-03-07T01:44:37;7.00;81.86
86008;SHT30;76587;41.936;25.550;2024-03-07T01:47:05;6.98;81.89
86008;SHT30;76587;41.936;25.550;2024-03-07T01:49:31;6.95;81.91
86008;SHT30;76587;41.936;25.550;2024-03-07T01:51:58;6.93;81.98
86008;SHT30;76587;41.936;25.550;2024-03-07T01:54:25;7.01;81.81
86008;SHT30;76587;41.936;25.550;2024-03-07T01:56:51;6.95;81.69
86008;SHT30;76587;41.936;25.550;2024-03-07T01:59:18;6.94;81.71
86008;SHT30;76587;41.936;25.550;2024-03-07T02:01:46;6.93;81.76
86008;SHT30;76587;41.936;25.550;2024-03-07T02:04:12;6.91;81.82
86008;SHT30;76587;41.936;25.550;2024-03-07T02:06:38;6.91;81.85
86008;SHT30;76587;41.936;25.550;2024-03-07T02:09:03;6.85;82.20
86008;SHT30;76587;41.936;25.550;2024-03-07T02:11:31;6.91;82.15
86008;SHT30;76587;41.936;25.550;2024-03-07T02:13:56;6.88;82.27
86008;SHT30;76587;41.936;25.550;2024-03-07T02:16:22;6.83;82.68
86008;SHT30;76587;41.936;25.550;2024-03-07T02:18:48;6.84;82.82
86008;SHT30;76587;41.936;25.550;2024-03-07T02:21:14;6.88;82.78
86008;SHT30;76587;41.936;25.550;2024-03-07T02:23:39;6.91;82.86
86008;SHT30;76587;41.936;25.550;2024-03-07T02:26:06;6.98;82.76
86008;SHT30;76587;41.936;25.550;2024-03-07T02:28:33;6.94;82.94
86008;SHT30;76587;41.936;25.550;2024-03-07T02:31:00;7.00;82.93
86008;SHT30;76587;41.936;25.550;2024-03-07T02:33:25;6.97;82.94
86008;SHT30;76587;41.936;25.550;2024-03-07T02:35:51;7.03;82.85
86008;SHT30;76587;41.936;25.550;2024-03-07T02:38:16;6.97;83.05
86008;SHT30;76587;41.936;25.550;2024-03-07T02:40:43;6.97;83.01
86008;SHT30;76587;41.936;25.550;2024-03-07T02:43:08;6.95;82.94
86008;SHT30;76587;41.936;25.550;2024-03-07T02:45:33;6.90;83.30
86008;SHT30;76587;41.936;25.550;2024-03-07T02:47:59;6.80;83.70
86008;SHT30;76587;41.936;25.550;2024-03-07T02:50:25;6.71;84.24
86008;SHT30;76587;41.936;25.550;2024-03-07T02:52:50;6.73;84.46
86008;SHT30;76587;41.936;25.550;2024-03-07T02:55:18;6.73;84.33
86008;SHT30;76587;41.936;25.550;2024-03-07T02:57:44;6.74;84.48
86008;SHT30;76587;41.936;25.550;2024-03-07T03:00:11;6.76;84.63
86008;SHT30;76587;41.936;25.550;2024-03-07T03:02:47;6.77;84.56
86008;SHT30;76587;41.936;25.550;2024-03-07T03:05:13;6.85;84.29
86008;SHT30;76587;41.936;25.550;2024-03-07T03:07:40;6.91;83.75
86008;SHT30;76587;41.936;25.550;2024-03-07T03:10:06;6.94;83.52
86008;SHT30;76587;41.936;25.550;2024-03-07T03:12:37;6.93;83.53
86008;SHT30;76587;41.936;25.550;2024-03-07T03:15:03;6.93;83.17
86008;SHT30;76587;41.936;25.550;2024-03-07T03:17:30;6.90;83.03
86008;SHT30;76587;41.936;25.550;2024-03-07T03:19:56;6.95;82.89
86008;SHT30;76587;41.936;25.550;2024-03-07T03:22:22;6.97;83.06
86008;SHT30;76587;41.936;25.550;2024-03-07T03:24:47;6.98;83.09
86008;SHT30;76587;41.936;25.550;2024-03-07T03:27:13;6.94;83.23
86008;SHT30;76587;41.936;25.550;2024-03-07T03:29:39;6.98;82.90
86008;SHT30;76587;41.936;25.550;2024-03-07T03:32:06;7.00;82.45
86008;SHT30;76587;41.936;25.550;2024-03-07T03:34:32;7.00;82.51
86008;SHT30;76587;41.936;25.550;2024-03-07T03:36:59;6.91;82.63
86008;SHT30;76587;41.936;25.550;2024-03-07T03:39:24;6.98;82.51
86008;SHT30;76587;41.936;25.550;2024-03-07T03:41:52;7.04;82.03
86008;SHT30;76587;41.936;25.550;2024-03-07T03:44:17;7.03;82.14
86008;SHT30;76587;41.936;25.550;2024-03-07T03:46:43;7.08;81.99
86008;SHT30;76587;41.936;25.550;2024-03-07T03:49:09;7.14;81.75
86008;SHT30;76587;41.936;25.550;2024-03-07T03:51:35;7.15;81.47
86008;SHT30;76587;41.936;25.550;2024-03-07T03:54:01;7.19;81.49
86008;SHT30;76587;41.936;25.550;2024-03-07T03:56:26;7.24;81.20
86008;SHT30;76587;41.936;25.550;2024-03-07T03:58:52;7.28;81.10
86008;SHT30;76587;41.936;25.550;2024-03-07T04:01:18;7.28;80.70
86008;SHT30;76587;41.936;25.550;2024-03-07T04:03:43;7.27;80.70
86008;SHT30;76587;41.936;25.550;2024-03-07T04:06:12;7.18;80.67
86008;SHT30;76587;41.936;25.550;2024-03-07T04:08:37;7.14;80.76
86008;SHT30;76587;41.936;25.550;2024-03-07T04:11:03;7.19;80.41
86008;SHT30;76587;41.936;25.550;2024-03-07T04:13:29;7.18;80.51
86008;SHT30;76587;41.936;25.550;2024-03-07T04:15:55;7.19;80.21
86008;SHT30;76587;41.936;25.550;2024-03-07T04:18:21;7.17;80.28
86008;SHT30;76587;41.936;25.550;2024-03-07T04:20:46;7.15;80.47
86008;SHT30;76587;41.936;25.550;2024-03-07T04:23:12;7.17;80.32
86008;SHT30;76587;41.936;25.550;2024-03-07T04:25:37;7.21;80.16
86008;SHT30;76587;41.936;25.550;2024-03-07T04:28:03;7.25;79.87
86008;SHT30;76587;41.936;25.550;2024-03-07T04:30:29;7.21;80.16
86008;SHT30;76587;41.936;25.550;2024-03-07T04:32:55;7.25;80.08
86008;SHT30;76587;41.936;25.550;2024-03-07T04:35:20;7.27;80.23
86008;SHT30;76587;41.936;25.550;2024-03-07T04:37:46;7.27;80.11
86008;SHT30;76587;41.936;25.550;2024-03-07T04:40:12;7.29;79.60
86008;SHT30;76587;41.936;25.550;2024-03-07T04:42:45;7.29;79.58
86008;SHT30;76587;41.936;25.550;2024-03-07T04:45:11;7.19;79.76
86008;SHT30;76587;41.936;25.550;2024-03-07T04:47:42;7.21;79.99
86008;SHT30;76587;41.936;25.550;2024-03-07T04:50:08;7.18;79.88
86008;SHT30;76587;41.936;25.550;2024-03-07T04:52:39;7.21;79.80
86008;SHT30;76587;41.936;25.550;2024-03-07T04:55:08;7.22;79.63
86008;SHT30;76587;41.936;25.550;2024-03-07T04:57:38;7.15;79.74
86008;SHT30;76587;41.936;25.550;2024-03-07T05:00:10;7.17;79.60
86008;SHT30;76587;41.936;25.550;2024-03-07T05:02:46;7.17;79.35
86008;SHT30;76587;41.936;25.550;2024-03-07T05:05:11;7.14;79.75
86008;SHT30;76587;41.936;25.550;2024-03-07T05:07:38;7.15;79.76
86008;SHT30;76587;41.936;25.550;2024-03-07T05:10:04;7.21;79.85
86008;SHT30;76587;41.936;25.550;2024-03-07T05:12:30;7.21;79.75
86008;SHT30;76587;41.936;25.550;2024-03-07T05:14:56;7.31;78.99
86008;SHT30;76587;41.936;25.550;2024-03-07T05:17:21;7.36;78.61
86008;SHT30;76587;41.936;25.550;2024-03-07T05:19:47;7.38;78.51
86008;SHT30;76587;41.936;25.550;2024-03-07T05:22:14;7.38;78.41
86008;SHT30;76587;41.936;25.550;2024-03-07T05:24:44;7.39;78.54
86008;SHT30;76587;41.936;25.550;2024-03-07T05:27:09;7.47;78.40
86008;SHT30;76587;41.936;25.550;2024-03-07T05:29:38;7.41;78.42
86008;SHT30;76587;41.936;25.550;2024-03-07T05:32:23;7.39;78.56
86008;SHT30;76587;41.936;25.550;2024-03-07T05:34:49;7.42;78.52
86008;SHT30;76587;41.936;25.550;2024-03-07T05:37:15;7.49;78.59
86008;SHT30;76587;41.936;25.550;2024-03-07T05:39:41;7.61;77.97
86008;SHT30;76587;41.936;25.550;2024-03-07T05:42:06;7.71;77.65
86008;SHT30;76587;41.936;25.550;2024-03-07T05:44:33;7.89;77.01
86008;SHT30;76587;41.936;25.550;2024-03-07T05:46:58;8.03;76.40
86008;SHT30;76587;41.936;25.550;2024-03-07T05:49:24;8.03;76.24
86008;SHT30;76587;41.936;25.550;2024-03-07T05:51:49;8.06;76.25
86008;SHT30;76587;41.936;25.550;2024-03-07T05:54:14;8.06;76.13
86008;SHT30;76587;41.936;25.550;2024-03-07T05:56:41;8.13;76.02
86008;SHT30;76587;41.936;25.550;2024-03-07T05:59:08;8.23;75.38
86008;SHT30;76587;41.936;25.550;2024-03-07T06:01:37;8.27;75.26
86008;SHT30;76587;41.936;25.550;2024-03-07T06:04:04;8.34;75.10
86008;SHT30;76587;41.936;25.550;2024-03-07T06:06:33;8.43;74.92
86008;SHT30;76587;41.936;25.550;2024-03-07T06:09:01;8.51;74.73
86008;SHT30;76587;41.936;25.550;2024-03-07T06:14:04;8.53;74.85
86008;SHT30;76587;41.936;25.550;2024-03-07T06:16:31;8.61;74.50
86008;SHT30;76587;41.936;25.550;2024-03-07T06:19:01;8.64;74.54
86008;SHT30;76587;41.936;25.550;2024-03-07T06:21:27;8.74;74.33
86008;SHT30;76587;41.936;25.550;2024-03-07T06:23:54;8.75;74.22
86008;SHT30;76587;41.936;25.550;2024-03-07T06:26:35;8.88;73.63
86008;SHT30;76587;41.936;25.550;2024-03-07T06:29:07;8.85;73.75
86008;SHT30;76587;41.936;25.550;2024-03-07T06:31:39;8.74;73.67
86008;SHT30;76587;41.936;25.550;2024-03-07T06:34:05;8.88;73.51
86008;SHT30;76587;41.936;25.550;2024-03-07T06:36:32;8.95;73.28
86008;SHT30;76587;41.936;25.550;2024-03-07T06:38:59;9.01;72.92
86008;SHT30;76587;41.936;25.550;2024-03-07T06:41:25;9.07;72.86
86008;SHT30;76587;41.936;25.550;2024-03-07T06:43:50;9.14;72.79
86008;SHT30;76587;41.936;25.550;2024-03-07T06:46:18;9.24;72.64
86008;SHT30;76587;41.936;25.550;2024-03-07T06:48:45;9.32;72.39
86008;SHT30;76587;41.936;25.550;2024-03-07T06:51:11;9.43;72.09
86008;SHT30;76587;41.936;25.550;2024-03-07T06:53:36;9.38;72.08
86008;SHT30;76587;41.936;25.550;2024-03-07T06:56:02;9.40;72.14
86008;SHT30;76587;41.936;25.550;2024-03-07T06:58:28;9.31;72.43
86008;SHT30;76587;41.936;25.550;2024-03-07T07:00:54;9.28;72.99
86008;SHT30;76587;41.936;25.550;2024-03-07T07:03:20;9.32;73.21
86008;SHT30;76587;41.936;25.550;2024-03-07T07:05:48;9.39;72.81
86008;SHT30;76587;41.936;25.550;2024-03-07T07:08:13;9.31;73.22
86008;SHT30;76587;41.936;25.550;2024-03-07T07:10:39;9.24;73.98
86008;SHT30;76587;41.936;25.550;2024-03-07T07:13:06;9.26;74.16
86008;SHT30;76587;41.936;25.550;2024-03-07T07:15:32;9.26;74.77
86008;SHT30;76587;41.936;25.550;2024-03-07T07:17:58;9.24;74.85
86008;SHT30;76587;41.936;25.550;2024-03-07T07:20:24;9.32;74.74
86008;SHT30;76587;41.936;25.550;2024-03-07T07:22:50;9.38;74.92
86008;SHT30;76587;41.936;25.550;2024-03-07T07:25:16;9.38;75.76
86008;SHT30;76587;41.936;25.550;2024-03-07T07:27:44;9.46;75.34
86008;SHT30;76587;41.936;25.550;2024-03-07T07:30:11;9.50;75.07
86008;SHT30;76587;41.936;25.550;2024-03-07T07:32:37;9.45;75.66
86008;SHT30;76587;41.936;25.550;2024-03-07T07:35:03;9.38;76.13
86008;SHT30;76587;41.936;25.550;2024-03-07T07:37:28;9.28;76.55
86008;SHT30;76587;41.936;25.550;2024-03-07T07:39:54;9.28;77.03
86008;SHT30;76587;41.936;25.550;2024-03-07T07:42:19;9.16;77.80
86008;SHT30;76587;41.936;25.550;2024-03-07T07:44:45;9.11;77.66
86008;SHT30;76587;41.936;25.550;2024-03-07T07:47:11;9.01;78.12
86008;SHT30;76587;41.936;25.550;2024-03-07T07:49:38;8.85;79.16
86008;SHT30;76587;41.936;25.550;2024-03-07T07:52:06;8.87;79.79
86008;SHT30;76587;41.936;25.550;2024-03-07T07:54:34;8.88;80.20
86008;SHT30;76587;41.936;25.550;2024-03-07T07:56:59;8.97;79.96
86008;SHT30;76587;41.936;25.550;2024-03-07T07:59:24;8.92;80.41
86008;SHT30;76587;41.936;25.550;2024-03-07T08:01:50;8.87;80.34
86008;SHT30;76587;41.936;25.550;2024-03-07T08:04:18;8.98;80.23
86008;SHT30;76587;41.936;25.550;2024-03-07T08:06:43;8.94;79.92
86008;SHT30;76587;41.936;25.550;2024-03-07T08:09:09;8.94;80.42
86008;SHT30;76587;41.936;25.550;2024-03-07T08:11:35;8.87;81.08
86008;SHT30;76587;41.936;25.550;2024-03-07T08:14:02;8.94;81.08
86008;SHT30;76587;41.936;25.550;2024-03-07T08:16:28;9.02;81.01
86008;SHT30;76587;41.936;25.550;2024-03-07T08:18:53;8.97;81.01
86008;SHT30;76587;41.936;25.550;2024-03-07T08:21:19;9.04;80.98
86008;SHT30;76587;41.936;25.550;2024-03-07T08:23:44;9.05;80.76
86008;SHT30;76587;41.936;25.550;2024-03-07T08:26:11;9.07;81.08
86008;SHT30;76587;41.936;25.550;2024-03-07T08:28:37;9.10;80.88
86008;SHT30;76587;41.936;25.550;2024-03-07T08:31:02;9.11;81.26
86008;SHT30;76587;41.936;25.550;2024-03-07T08:33:29;9.08;81.35
86008;SHT30;76587;41.936;25.550;2024-03-07T08:35:58;9.01;81.33
86008;SHT30;76587;41.936;25.550;2024-03-07T08:38:24;9.05;81.34
86008;SHT30;76587;41.936;25.550;2024-03-07T08:40:50;9.08;81.58
86008;SHT30;76587;41.936;25.550;2024-03-07T08:43:15;9.08;81.36
86008;SHT30;76587;41.936;25.550;2024-03-07T08:45:41;9.14;81.35
86008;SHT30;76587;41.936;25.550;2024-03-07T08:48:06;9.14;81.07
86008;SHT30;76587;41.936;25.550;2024-03-07T08:50:35;9.18;81.08
86008;SHT30;76587;41.936;25.550;2024-03-07T08:53:03;9.16;81.07
86008;SHT30;76587;41.936;25.550;2024-03-07T08:55:29;9.24;80.70
86008;SHT30;76587;41.936;25.550;2024-03-07T08:57:56;9.29;80.42
86008;SHT30;76587;41.936;25.550;2024-03-07T09:00:22;9.34;80.74
86008;SHT30;76587;41.936;25.550;2024-03-07T09:02:53;9.32;80.56
86008;SHT30;76587;41.936;25.550;2024-03-07T09:05:20;9.36;80.18
86008;SHT30;76587;41.936;25.550;2024-03-07T09:07:47;9.39;79.80
86008;SHT30;76587;41.936;25.550;2024-03-07T09:10:13;9.35;80.10
86008;SHT30;76587;41.936;25.550;2024-03-07T09:12:46;9.36;80.00
86008;SHT30;76587;41.936;25.550;2024-03-07T09:15:15;9.29;79.61
86008;SHT30;76587;41.936;25.550;2024-03-07T09:17:42;9.34;80.00
86008;SHT30;76587;41.936;25.550;2024-03-07T09:20:08;9.43;79.74
86008;SHT30;76587;41.936;25.550;2024-03-07T09:22:48;9.36;80.32
86008;SHT30;76587;41.936;25.550;2024-03-07T09:25:15;9.40;80.26
86008;SHT30;76587;41.936;25.550;2024-03-07T09:27:41;9.52;79.64
86008;SHT30;76587;41.936;25.550;2024-03-07T09:30:08;9.42;79.22
86008;SHT30;76587;41.936;25.550;2024-03-07T09:32:39;9.40;79.07
86008;SHT30;76587;41.936;25.550;2024-03-07T09:35:06;9.36;79.06
86008;SHT30;76587;41.936;25.550;2024-03-07T09:37:32;9.35;78.29
86008;SHT30;76587;41.936;25.550;2024-03-07T09:39:58;9.25;78.30
86008;SHT30;76587;41.936;25.550;2024-03-07T09:42:25;9.24;78.58
86008;SHT30;76587;41.936;25.550;2024-03-07T09:44:51;9.35;78.13
86008;SHT30;76587;41.936;25.550;2024-03-07T09:47:17;9.32;78.08
86008;SHT30;76587;41.936;25.550;2024-03-07T09:49:43;9.31;77.85
86008;SHT30;76587;41.936;25.550;2024-03-07T09:52:11;9.31;77.72
86008;SHT30;76587;41.936;25.550;2024-03-07T09:54:39;9.29;78.30
86008;SHT30;76587;41.936;25.550;2024-03-07T09:57:11;9.43;77.33
86008;SHT30;76587;41.936;25.550;2024-03-07T09:59:38;9.39;77.57
86008;SHT30;76587;41.936;25.550;2024-03-07T10:02:06;9.48;77.55
86008;SHT30;76587;41.936;25.550;2024-03-07T10:04:42;9.46;78.08
86008;SHT30;76587;41.936;25.550;2024-03-07T10:07:11;9.60;77.46
86008;SHT30;76587;41.936;25.550;2024-03-07T10:09:39;9.63;77.19
86008;SHT30;76587;41.936;25.550;2024-03-07T10:12:06;9.60;77.31
86008;SHT30;76587;41.936;25.550;2024-03-07T10:14:35;9.68;76.85
86008;SHT30;76587;41.936;25.550;2024-03-07T10:17:02;9.66;77.51
86008;SHT30;76587;41.936;25.550;2024-03-07T10:19:28;9.69;76.88
86008;SHT30;76587;41.936;25.550;2024-03-07T10:21:54;9.66;76.94
86008;SHT30;76587;41.936;25.550;2024-03-07T10:24:25;9.68;76.59
86008;SHT30;76587;41.936;25.550;2024-03-07T10:26:50;9.62;76.81
86008;SHT30;76587;41.936;25.550;2024-03-07T10:29:17;9.65;76.94
86008;SHT30;76587;41.936;25.550;2024-03-07T10:31:44;9.68;77.37
86008;SHT30;76587;41.936;25.550;2024-03-07T10:34:11;9.59;77.62
86008;SHT30;76587;41.936;25.550;2024-03-07T10:36:37;9.59;77.66
86008;SHT30;76587;41.936;25.550;2024-03-07T10:39:03;9.63;77.53
86008;SHT30;76587;41.936;25.550;2024-03-07T10:41:48;9.59;77.80
86008;SHT30;76587;41.936;25.550;2024-03-07T10:44:33;9.53;77.91
86008;SHT30;76587;41.936;25.550;2024-03-07T10:47:07;9.48;77.85
86008;SHT30;76587;41.936;25.550;2024-03-07T10:49:35;9.52;77.87
86008;SHT30;76587;41.936;25.550;2024-03-07T10:54:34;9.50;78.14
86008;SHT30;76587;41.936;25.550;2024-03-07T10:59:50;9.59;77.56
86008;SHT30;76587;41.936;25.550;2024-03-07T11:02:46;9.62;77.32
86008;SHT30;76587;41.936;25.550;2024-03-07T11:05:13;9.63;77.20
86008;SHT30;76587;41.936;25.550;2024-03-07T11:07:38;9.59;78.43
86008;SHT30;76587;41.936;25.550;2024-03-07T11:10:05;9.55;77.47
86008;SHT30;76587;41.936;25.550;2024-03-07T11:12:38;9.48;77.98
86008;SHT30;76587;41.936;25.550;2024-03-07T11:15:07;9.39;78.20
86008;SHT30;76587;41.936;25.550;2024-03-07T11:17:42;9.45;78.28
86008;SHT30;76587;41.936;25.550;2024-03-07T11:20:24;9.50;78.40
86008;SHT30;76587;41.936;25.550;2024-03-07T11:22:50;9.49;78.74
86008;SHT30;76587;41.936;25.550;2024-03-07T11:25:20;9.45;78.82
86008;SHT30;76587;41.936;25.550;2024-03-07T11:27:59;9.38;79.67
86008;SHT30;76587;41.936;25.550;2024-03-07T11:30:25;9.35;79.69
86008;SHT30;76587;41.936;25.550;2024-03-07T11:32:52;9.36;79.81
86008;SHT30;76587;41.936;25.550;2024-03-07T11:35:34;9.28;79.95
86008;SHT30;76587;41.936;25.550;2024-03-07T11:38:01;9.22;80.13
86008;SHT30;76587;41.936;25.550;2024-03-07T11:42:57;9.25;80.11
86008;SHT30;76587;41.936;25.550;2024-03-07T11:45:30;9.28;80.09
86008;SHT30;76587;41.936;25.550;2024-03-07T11:48:00;9.19;80.86
86008;SHT30;76587;41.936;25.550;2024-03-07T11:50:29;9.08;81.07
86008;SHT30;76587;41.936;25.550;2024-03-07T11:53:01;9.02;81.39
86008;SHT30;76587;41.936;25.550;2024-03-07T11:55:27;8.94;81.89
86008;SHT30;76587;41.936;25.550;2024-03-07T11:58:06;8.84;82.22
86008;SHT30;76587;41.936;25.550;2024-03-07T12:00:34;8.74;82.97
86008;SHT30;76587;41.936;25.550;2024-03-07T12:03:00;8.68;83.34
86008;SHT30;76587;41.936;25.550;2024-03-07T12:05:25;8.56;83.57
86008;SHT30;76587;41.936;25.550;2024-03-07T12:07:52;8.47;83.94
86008;SHT30;76587;41.936;25.550;2024-03-07T12:10:17;8.41;83.78
86008;SHT30;76587;41.936;25.550;2024-03-07T12:12:50;8.47;83.73
86008;SHT30;76587;41.936;25.550;2024-03-07T12:15:15;8.50;83.22
86008;SHT30;76587;41.936;25.550;2024-03-07T12:17:45;8.43;84.06
86008;SHT30;76587;41.936;25.550;2024-03-07T12:20:12;8.40;84.64
86008;SHT30;76587;41.936;25.550;2024-03-07T12:22:57;8.33;84.63
86008;SHT30;76587;41.936;25.550;2024-03-07T12:25:23;8.27;85.43
86008;SHT30;76587;41.936;25.550;2024-03-07T12:28:05;8.27;86.03
86008;SHT30;76587;41.936;25.550;2024-03-07T12:30:35;8.14;87.03
86008;SHT30;76587;41.936;25.550;2024-03-07T12:33:02;8.13;87.48
86008;SHT30;76587;41.936;25.550;2024-03-07T12:35:34;8.12;87.67
86008;SHT30;76587;41.936;25.550;2024-03-07T12:38:00;8.13;87.68
86008;SHT30;76587;41.936;25.550;2024-03-07T12:40:26;8.07;87.68
86008;SHT30;76587;41.936;25.550;2024-03-07T12:42:55;8.10;87.64
86008;SHT30;76587;41.936;25.550;2024-03-07T12:45:20;7.96;87.40
86008;SHT30;76587;41.936;25.550;2024-03-07T12:47:51;7.86;87.35
86008;SHT30;76587;41.936;25.550;2024-03-07T12:50:20;7.69;87.85
86008;SHT30;76587;41.936;25.550;2024-03-07T12:52:46;7.75;87.93
86008;SHT30;76587;41.936;25.550;2024-03-07T12:55:15;7.72;88.50
86008;SHT30;76587;41.936;25.550;2024-03-07T12:57:47;7.85;88.39
86008;SHT30;76587;41.936;25.550;2024-03-07T13:00:15;7.81;88.08
86008;SHT30;76587;41.936;25.550;2024-03-07T13:02:46;7.76;88.56
86008;SHT30;76587;41.936;25.550;2024-03-07T13:05:12;7.73;88.38
86008;SHT30;76587;41.936;25.550;2024-03-07T13:07:49;7.69;88.25
86008;SHT30;76587;41.936;25.550;2024-03-07T13:10:15;7.76;88.15
86008;SHT30;76587;41.936;25.550;2024-03-07T13:12:44;7.85;88.14
86008;SHT30;76587;41.936;25.550;2024-03-07T13:15:13;7.87;87.81
86008;SHT30;76587;41.936;25.550;2024-03-07T13:17:39;7.85;87.73
86008;SHT30;76587;41.936;25.550;2024-03-07T13:20:05;7.85;87.80
86008;SHT30;76587;41.936;25.550;2024-03-07T13:22:42;7.78;88.16
86008;SHT30;76587;41.936;25.550;2024-03-07T13:25:19;7.87;88.23
86008;SHT30;76587;41.936;25.550;2024-03-07T13:28:04;7.94;88.32
86008;SHT30;76587;41.936;25.550;2024-03-07T13:30:34;8.13;89.17
86008;SHT30;76587;41.936;25.550;2024-03-07T13:33:02;8.26;89.58
86008;SHT30;76587;41.936;25.550;2024-03-07T13:35:28;8.36;89.33
86008;SHT30;76587;41.936;25.550;2024-03-07T13:37:55;8.56;88.99
86008;SHT30;76587;41.936;25.550;2024-03-07T13:40:22;8.64;88.74
86008;SHT30;76587;41.936;25.550;2024-03-07T13:43:00;8.77;87.54
86008;SHT30;76587;41.936;25.550;2024-03-07T13:45:30;8.71;86.95
86008;SHT30;76587;41.936;25.550;2024-03-07T13:48:05;8.75;87.28
86008;SHT30;76587;41.936;25.550;2024-03-07T13:50:33;8.85;87.52
86008;SHT30;76587;41.936;25.550;2024-03-07T13:52:59;8.98;86.75
86008;SHT30;76587;41.936;25.550;2024-03-07T14:09:42;8.94;83.87
86008;SHT30;76587;41.936;25.550;2024-03-07T14:24:32;9.45;82.41
86008;SHT30;76587;41.936;25.550;2024-03-07T14:32:19;9.21;80.76
86008;SHT30;76587;41.936;25.550;2024-03-07T14:37:24;9.04;80.52
86008;SHT30;76587;41.936;25.550;2024-03-07T14:39:53;9.05;81.15
86008;SHT30;76587;41.936;25.550;2024-03-07T14:42:20;8.95;81.37
86008;SHT30;76587;41.936;25.550;2024-03-07T14:44:46;8.88;80.73
86008;SHT30;76587;41.936;25.550;2024-03-07T14:47:16;8.74;80.61
86008;SHT30;76587;41.936;25.550;2024-03-07T14:49:42;8.64;80.32
86008;SHT30;76587;41.936;25.550;2024-03-07T14:52:07;8.72;81.75
86008;SHT30;76587;41.936;25.550;2024-03-07T14:54:39;8.68;82.17
86008;SHT30;76587;41.936;25.550;2024-03-07T14:57:09;8.67;82.60
86008;SHT30;76587;41.936;25.550;2024-03-07T14:59:36;8.65;82.72
86008;SHT30;76587;41.936;25.550;2024-03-07T15:02:02;8.75;83.35
86008;SHT30;76587;41.936;25.550;2024-03-07T15:04:30;8.74;82.97
86008;SHT30;76587;41.936;25.550;2024-03-07T15:06:57;8.80;82.86
86008;SHT30;76587;41.936;25.550;2024-03-07T15:09:23;8.82;82.63
86008;SHT30;76587;41.936;25.550;2024-03-07T15:11:49;8.89;82.50
86008;SHT30;76587;41.936;25.550;2024-03-07T15:14:14;8.92;82.81
86008;SHT30;76587;41.936;25.550;2024-03-07T15:16:40;8.88;81.57
86008;SHT30;76587;41.936;25.550;2024-03-07T15:19:09;8.84;80.33
86008;SHT30;76587;41.936;25.550;2024-03-07T15:21:38;8.71;80.10
86008;SHT30;76587;41.936;25.550;2024-03-07T15:24:04;8.70;79.94
86008;SHT30;76587;41.936;25.550;2024-03-07T15:26:30;8.68;80.29
86008;SHT30;76587;41.936;25.550;2024-03-07T15:28:59;8.75;81.37
86008;SHT30;76587;41.936;25.550;2024-03-07T15:31:27;8.71;80.83
86008;SHT30;76587;41.936;25.550;2024-03-07T15:33:53;8.75;81.21
86008;SHT30;76587;41.936;25.550;2024-03-07T15:36:20;8.71;80.50
86008;SHT30;76587;41.936;25.550;2024-03-07T15:38:51;8.58;79.81
86008;SHT30;76587;41.936;25.550;2024-03-07T15:41:17;8.41;80.24
86008;SHT30;76587;41.936;25.550;2024-03-07T15:43:45;8.36;81.34
86008;SHT30;76587;41.936;25.550;2024-03-07T15:46:11;8.19;81.69
86008;SHT30;76587;41.936;25.550;2024-03-07T15:48:38;8.14;82.51
86008;SHT30;76587;41.936;25.550;2024-03-07T15:51:04;8.02;83.49
86008;SHT30;76587;41.936;25.550;2024-03-07T15:53:30;7.94;83.90
86008;SHT30;76587;41.936;25.550;2024-03-07T15:56:01;8.03;84.05
86008;SHT30;76587;41.936;25.550;2024-03-07T15:58:27;7.97;83.99
86008;SHT30;76587;41.936;25.550;2024-03-07T16:00:52;7.86;84.36
86008;SHT30;76587;41.936;25.550;2024-03-07T16:03:18;7.89;84.72
86008;SHT30;76587;41.936;25.550;2024-03-07T16:05:43;7.90;85.16
86008;SHT30;76587;41.936;25.550;2024-03-07T16:08:10;7.90;84.62
86008;SHT30;76587;41.936;25.550;2024-03-07T16:10:38;7.93;85.12
86008;SHT30;76587;41.936;25.550;2024-03-07T16:13:07;7.99;85.45
86008;SHT30;76587;41.936;25.550;2024-03-07T16:15:36;8.05;85.39
86008;SHT30;76587;41.936;25.550;2024-03-07T16:18:03;8.02;83.89